sensor_id;sensor_type;location;lat;lon;timestamp;temperature;humidity
12436;DHT22;6282;51.440;6.938;2022-10-30T00:00:21;18.80;1.00
12436;DHT22;6282;51.440;6.938;2022-10-30T00:02:48;18.70;1.00
12436;DHT22;6282;51.440;6.938;2022-10-30T00:05:17;18.80;1.00
12436;DHT22;6282;51.440;6.938;2022-10-30T00:07:44;18.70;1.00
12436;DHT22;6282;51.440;6.938;2022-10-30T00:10:13;18.70;1.00
12436;DHT22;6282;51.440;6.938;2022-10-30T00:12:40;18.60;1.00
12436;DHT22;6282;51.440;6.938;2022-10-30T00:15:07;18.70;1.00
12436;DHT22;6282;51.440;6.938;2022-10-30T00:17:34;18.60;1.00
12436;DHT22;6282;51.440;6.938;2022-10-30T00:20:02;18.60;1.00
12436;DHT22;6282;51.440;6.938;2022-10-30T00:22:30;18.60;1.00
12436;DHT22;6282;51.440;6.938;2022-10-30T00:24:57;18.60;1.00
12436;DHT22;6282;51.440;6.938;2022-10-30T00:27:24;18.50;53.40
12436;DHT22;6282;51.440;6.938;2022-10-30T00:29:50;18.50;87.50
12436;DHT22;6282;51.440;6.938;2022-10-30T00:32:17;18.50;82.40
12436;DHT22;6282;51.440;6.938;2022-10-30T00:34:44;18.40;66.50
12436;DHT22;6282;51.440;6.938;2022-10-30T00:37:11;18.40;99.90
12436;DHT22;6282;51.440;6.938;2022-10-30T00:39:39;18.40;99.90
12436;DHT22;6282;51.440;6.938;2022-10-30T00:42:09;18.50;90.00
12436;DHT22;6282;51.440;6.938;2022-10-30T00:44:41;18.40;99.90
12436;DHT22;6282;51.440;6.938;2022-10-30T00:47:14;18.40;99.90
12436;DHT22;6282;51.440;6.938;2022-10-30T00:49:49;18.40;99.90
12436;DHT22;6282;51.440;6.938;2022-10-30T00:52:17;18.30;99.90
12436;DHT22;6282;51.440;6.938;2022-10-30T00:54:47;18.30;99.90
12436;DHT22;6282;51.440;6.938;2022-10-30T00:57:14;18.00;99.90
12436;DHT22;6282;51.440;6.938;2022-10-30T00:59:41;18.20;99.90
12436;DHT22;6282;51.440;6.938;2022-10-30T01:02:08;18.20;99.90
12436;DHT22;6282;51.440;6.938;2022-10-30T01:04:36;18.30;99.90
12436;DHT22;6282;51.440;6.938;2022-10-30T01:07:07;18.20;99.90
12436;DHT22;6282;51.440;6.938;2022-10-30T01:09:35;18.20;99.90
12436;DHT22;6282;51.440;6.938;2022-10-30T01:12:04;18.20;99.90
12436;DHT22;6282;51.440;6.938;2022-10-30T01:14:33;18.20;99.90
12436;DHT22;6282;51.440;6.938;2022-10-30T01:17:15;18.40;99.90
12436;DHT22;6282;51.440;6.938;2022-10-30T01:19:49;18.10;99.90
12436;DHT22;6282;51.440;6.938;2022-10-30T01:22:31;18.00;99.90
12436;DHT22;6282;51.440;6.938;2022-10-30T01:25:14;18.00;99.90
12436;DHT22;6282;51.440;6.938;2022-10-30T01:27:51;18.00;99.90
12436;DHT22;6282;51.440;6.938;2022-10-30T01:30:30;18.00;99.90
12436;DHT22;6282;51.440;6.938;2022-10-30T01:33:08;17.90;99.90
12436;DHT22;6282;51.440;6.938;2022-10-30T01:35:44;17.80;99.90
12436;DHT22;6282;51.440;6.938;2022-10-30T01:38:18;17.90;99.90
12436;DHT22;6282;51.440;6.938;2022-10-30T01:40:47;17.70;1.00
12436;DHT22;6282;51.440;6.938;2022-10-30T01:43:15;17.60;1.00
12436;DHT22;6282;51.440;6.938;2022-10-30T01:46:09;17.90;1.00
12436;DHT22;6282;51.440;6.938;2022-10-30T01:48:55;17.70;1.00
12436;DHT22;6282;51.440;6.938;2022-10-30T01:51:33;17.60;1.00
12436;DHT22;6282;51.440;6.938;2022-10-30T01:54:08;17.60;1.00
12436;DHT22;6282;51.440;6.938;2022-10-30T01:56:43;17.60;1.00
12436;DHT22;6282;51.440;6.938;2022-10-30T01:59:18;17.60;1.00
12436;DHT22;6282;51.440;6.938;2022-10-30T02:01:47;17.70;1.00
12436;DHT22;6282;51.440;6.938;2022-10-30T02:04:14;17.80;1.00
12436;DHT22;6282;51.440;6.938;2022-10-30T02:06:41;17.60;1.00
12436;DHT22;6282;51.440;6.938;2022-10-30T02:09:08;17.60;1.00
12436;DHT22;6282;51.440;6.938;2022-10-30T02:11:36;17.50;1.00
12436;DHT22;6282;51.440;6.938;2022-10-30T02:14:06;17.50;1.00
12436;DHT22;6282;51.440;6.938;2022-10-30T02:16:38;17.50;1.00
12436;DHT22;6282;51.440;6.938;2022-10-30T02:19:07;17.50;1.00
12436;DHT22;6282;51.440;6.938;2022-10-30T02:21:35;17.60;1.00
12436;DHT22;6282;51.440;6.938;2022-10-30T02:24:02;17.30;1.00
12436;DHT22;6282;51.440;6.938;2022-10-30T02:26:29;17.50;1.00
12436;DHT22;6282;51.440;6.938;2022-10-30T02:28:56;17.50;1.00
12436;DHT22;6282;51.440;6.938;2022-10-30T02:31:23;17.60;1.00
12436;DHT22;6282;51.440;6.938;2022-10-30T02:33:50;17.60;1.00
12436;DHT22;6282;51.440;6.938;2022-10-30T02:36:17;17.60;1.00
12436;DHT22;6282;51.440;6.938;2022-10-30T02:38:45;17.60;1.00
12436;DHT22;6282;51.440;6.938;2022-10-30T02:41:12;17.60;1.00
12436;DHT22;6282;51.440;6.938;2022-10-30T02:43:39;17.50;1.00
12436;DHT22;6282;51.440;6.938;2022-10-30T02:46:06;17.50;1.00
12436;DHT22;6282;51.440;6.938;2022-10-30T02:48:32;17.50;1.00
12436;DHT22;6282;51.440;6.938;2022-10-30T02:51:00;17.40;1.00
12436;DHT22;6282;51.440;6.938;2022-10-30T02:53:28;17.40;1.00
12436;DHT22;6282;51.440;6.938;2022-10-30T02:56:02;17.30;1.00
12436;DHT22;6282;51.440;6.938;2022-10-30T02:58:29;17.30;1.00
12436;DHT22;6282;51.440;6.938;2022-10-30T03:00:55;17.20;1.00
12436;DHT22;6282;51.440;6.938;2022-10-30T03:03:22;17.30;20.30
12436;DHT22;6282;51.440;6.938;2022-10-30T03:05:49;17.30;48.10
12436;DHT22;6282;51.440;6.938;2022-10-30T03:08:16;17.20;99.20
12436;DHT22;6282;51.440;6.938;2022-10-30T03:10:43;17.30;99.90
12436;DHT22;6282;51.440;6.938;2022-10-30T03:13:11;17.10;99.90
12436;DHT22;6282;51.440;6.938;2022-10-30T03:15:38;17.20;99.90
12436;DHT22;6282;51.440;6.938;2022-10-30T03:18:05;17.10;99.90
12436;DHT22;6282;51.440;6.938;2022-10-30T03:20:32;17.20;99.90
12436;DHT22;6282;51.440;6.938;2022-10-30T03:22:59;17.10;99.90
12436;DHT22;6282;51.440;6.938;2022-10-30T03:25:25;17.20;99.90
12436;DHT22;6282;51.440;6.938;2022-10-30T03:27:52;17.10;99.90
12436;DHT22;6282;51.440;6.938;2022-10-30T03:30:20;17.10;99.90
12436;DHT22;6282;51.440;6.938;2022-10-30T03:32:47;17.10;99.90
12436;DHT22;6282;51.440;6.938;2022-10-30T03:35:14;17.10;99.90
12436;DHT22;6282;51.440;6.938;2022-10-30T03:37:41;17.10;99.90
12436;DHT22;6282;51.440;6.938;2022-10-30T03:40:09;17.10;99.90
12436;DHT22;6282;51.440;6.938;2022-10-30T03:42:39;17.10;99.90
12436;DHT22;6282;51.440;6.938;2022-10-30T03:45:06;17.00;99.90
12436;DHT22;6282;51.440;6.938;2022-10-30T03:47:38;17.00;99.90
12436;DHT22;6282;51.440;6.938;2022-10-30T03:50:05;17.00;99.90
12436;DHT22;6282;51.440;6.938;2022-10-30T03:52:32;17.00;99.90
12436;DHT22;6282;51.440;6.938;2022-10-30T03:54:59;16.90;99.90
12436;DHT22;6282;51.440;6.938;2022-10-30T03:57:26;17.00;99.90
12436;DHT22;6282;51.440;6.938;2022-10-30T03:59:53;17.10;99.90
12436;DHT22;6282;51.440;6.938;2022-10-30T04:02:19;16.90;99.90
12436;DHT22;6282;51.440;6.938;2022-10-30T04:04:47;16.90;99.90
12436;DHT22;6282;51.440;6.938;2022-10-30T04:07:14;16.70;1.00
12436;DHT22;6282;51.440;6.938;2022-10-30T04:09:41;16.70;1.00
12436;DHT22;6282;51.440;6.938;2022-10-30T04:12:08;16.50;1.00
12436;DHT22;6282;51.440;6.938;2022-10-30T04:14:35;16.60;1.00
12436;DHT22;6282;51.440;6.938;2022-10-30T04:17:01;16.50;1.00
12436;DHT22;6282;51.440;6.938;2022-10-30T04:19:30;16.50;1.00
12436;DHT22;6282;51.440;6.938;2022-10-30T04:21:58;16.40;12.10
12436;DHT22;6282;51.440;6.938;2022-10-30T04:24:25;16.30;99.90
12436;DHT22;6282;51.440;6.938;2022-10-30T04:26:52;16.30;99.90
12436;DHT22;6282;51.440;6.938;2022-10-30T04:29:19;16.40;99.90
12436;DHT22;6282;51.440;6.938;2022-10-30T04:31:46;16.20;99.90
12436;DHT22;6282;51.440;6.938;2022-10-30T04:34:12;16.10;99.90
12436;DHT22;6282;51.440;6.938;2022-10-30T04:36:39;16.10;1.00
12436;DHT22;6282;51.440;6.938;2022-10-30T04:39:08;16.20;1.00
12436;DHT22;6282;51.440;6.938;2022-10-30T04:41:35;16.20;1.00
12436;DHT22;6282;51.440;6.938;2022-10-30T04:44:02;16.20;1.00
12436;DHT22;6282;51.440;6.938;2022-10-30T04:46:30;16.20;1.00
12436;DHT22;6282;51.440;6.938;2022-10-30T04:48:57;16.20;1.00
12436;DHT22;6282;51.440;6.938;2022-10-30T04:51:24;16.00;1.00
12436;DHT22;6282;51.440;6.938;2022-10-30T04:53:50;16.20;1.00
12436;DHT22;6282;51.440;6.938;2022-10-30T04:56:20;16.30;1.00
12436;DHT22;6282;51.440;6.938;2022-10-30T04:58:46;16.40;1.00
12436;DHT22;6282;51.440;6.938;2022-10-30T05:01:13;16.30;1.00
12436;DHT22;6282;51.440;6.938;2022-10-30T05:03:40;16.20;1.00
12436;DHT22;6282;51.440;6.938;2022-10-30T05:06:16;16.20;1.00
12436;DHT22;6282;51.440;6.938;2022-10-30T05:08:44;16.10;1.00
12436;DHT22;6282;51.440;6.938;2022-10-30T05:11:11;16.10;1.00
12436;DHT22;6282;51.440;6.938;2022-10-30T05:13:39;16.10;1.00
12436;DHT22;6282;51.440;6.938;2022-10-30T05:16:07;16.00;1.00
12436;DHT22;6282;51.440;6.938;2022-10-30T05:18:34;16.10;1.00
12436;DHT22;6282;51.440;6.938;2022-10-30T05:21:00;16.00;46.60
12436;DHT22;6282;51.440;6.938;2022-10-30T05:23:27;15.90;99.90
12436;DHT22;6282;51.440;6.938;2022-10-30T05:25:54;15.80;1.00
12436;DHT22;6282;51.440;6.938;2022-10-30T05:28:21;15.80;1.00
12436;DHT22;6282;51.440;6.938;2022-10-30T05:30:51;15.80;1.00
12436;DHT22;6282;51.440;6.938;2022-10-30T05:33:18;15.70;1.00
12436;DHT22;6282;51.440;6.938;2022-10-30T05:35:45;15.70;99.90
12436;DHT22;6282;51.440;6.938;2022-10-30T05:38:12;15.60;99.90
12436;DHT22;6282;51.440;6.938;2022-10-30T05:40:39;15.40;1.00
12436;DHT22;6282;51.440;6.938;2022-10-30T05:43:06;15.70;1.00
12436;DHT22;6282;51.440;6.938;2022-10-30T05:45:33;15.40;99.90
12436;DHT22;6282;51.440;6.938;2022-10-30T05:48:02;15.30;53.20
12436;DHT22;6282;51.440;6.938;2022-10-30T05:50:30;15.40;99.90
12436;DHT22;6282;51.440;6.938;2022-10-30T05:52:58;15.30;99.90
12436;DHT22;6282;51.440;6.938;2022-10-30T05:55:26;15.40;99.90
12436;DHT22;6282;51.440;6.938;2022-10-30T05:57:56;15.40;15.10
12436;DHT22;6282;51.440;6.938;2022-10-30T06:00:24;15.40;1.00
12436;DHT22;6282;51.440;6.938;2022-10-30T06:02:50;15.30;99.90
12436;DHT22;6282;51.440;6.938;2022-10-30T06:05:19;15.30;99.90
12436;DHT22;6282;51.440;6.938;2022-10-30T06:07:45;15.30;99.90
12436;DHT22;6282;51.440;6.938;2022-10-30T06:10:12;15.30;1.00
12436;DHT22;6282;51.440;6.938;2022-10-30T06:12:39;15.30;99.90
12436;DHT22;6282;51.440;6.938;2022-10-30T06:15:06;15.20;1.00
12436;DHT22;6282;51.440;6.938;2022-10-30T06:17:34;15.30;1.00
12436;DHT22;6282;51.440;6.938;2022-10-30T06:20:01;15.00;99.90
12436;DHT22;6282;51.440;6.938;2022-10-30T06:22:29;15.00;1.00
12436;DHT22;6282;51.440;6.938;2022-10-30T06:24:56;15.10;1.00
12436;DHT22;6282;51.440;6.938;2022-10-30T06:27:23;15.20;99.90
12436;DHT22;6282;51.440;6.938;2022-10-30T06:29:50;15.10;1.00
12436;DHT22;6282;51.440;6.938;2022-10-30T06:32:19;15.20;99.90
12436;DHT22;6282;51.440;6.938;2022-10-30T06:34:46;15.30;1.00
12436;DHT22;6282;51.440;6.938;2022-10-30T06:37:13;15.20;1.00
12436;DHT22;6282;51.440;6.938;2022-10-30T06:39:41;15.20;1.00
12436;DHT22;6282;51.440;6.938;2022-10-30T06:42:08;15.00;99.90
12436;DHT22;6282;51.440;6.938;2022-10-30T06:44:34;15.20;1.00
12436;DHT22;6282;51.440;6.938;2022-10-30T06:47:01;15.10;99.90
12436;DHT22;6282;51.440;6.938;2022-10-30T06:49:28;14.80;1.00
12436;DHT22;6282;51.440;6.938;2022-10-30T06:51:55;14.60;1.00
12436;DHT22;6282;51.440;6.938;2022-10-30T06:54:23;14.60;99.90
12436;DHT22;6282;51.440;6.938;2022-10-30T06:56:51;14.50;99.90
12436;DHT22;6282;51.440;6.938;2022-10-30T06:59:17;14.60;99.90
12436;DHT22;6282;51.440;6.938;2022-10-30T07:01:44;14.80;99.90
12436;DHT22;6282;51.440;6.938;2022-10-30T07:04:11;15.00;99.90
12436;DHT22;6282;51.440;6.938;2022-10-30T07:06:38;15.10;1.00
12436;DHT22;6282;51.440;6.938;2022-10-30T07:09:05;15.30;1.00
12436;DHT22;6282;51.440;6.938;2022-10-30T07:11:31;15.40;1.00
12436;DHT22;6282;51.440;6.938;2022-10-30T07:14:00;15.60;1.00
12436;DHT22;6282;51.440;6.938;2022-10-30T07:16:27;15.70;1.00
12436;DHT22;6282;51.440;6.938;2022-10-30T07:18:53;15.60;1.00
12436;DHT22;6282;51.440;6.938;2022-10-30T07:21:21;15.70;99.90
12436;DHT22;6282;51.440;6.938;2022-10-30T07:23:48;15.80;1.00
12436;DHT22;6282;51.440;6.938;2022-10-30T07:26:15;15.80;99.90
12436;DHT22;6282;51.440;6.938;2022-10-30T07:28:41;15.90;1.00
12436;DHT22;6282;51.440;6.938;2022-10-30T07:31:10;16.00;99.90
12436;DHT22;6282;51.440;6.938;2022-10-30T07:33:36;16.00;1.00
12436;DHT22;6282;51.440;6.938;2022-10-30T07:36:04;16.00;99.90
12436;DHT22;6282;51.440;6.938;2022-10-30T07:38:30;16.00;1.00
12436;DHT22;6282;51.440;6.938;2022-10-30T07:40:57;16.00;13.90
12436;DHT22;6282;51.440;6.938;2022-10-30T07:43:24;16.00;1.00
12436;DHT22;6282;51.440;6.938;2022-10-30T07:45:51;16.10;1.00
12436;DHT22;6282;51.440;6.938;2022-10-30T07:48:19;16.00;99.90
12436;DHT22;6282;51.440;6.938;2022-10-30T07:50:46;16.10;1.00
12436;DHT22;6282;51.440;6.938;2022-10-30T07:53:13;16.10;97.20
12436;DHT22;6282;51.440;6.938;2022-10-30T07:55:41;16.20;26.40
12436;DHT22;6282;51.440;6.938;2022-10-30T07:58:08;16.30;10.40
12436;DHT22;6282;51.440;6.938;2022-10-30T08:00:34;16.30;1.00
12436;DHT22;6282;51.440;6.938;2022-10-30T08:03:01;16.40;99.90
12436;DHT22;6282;51.440;6.938;2022-10-30T08:05:29;16.40;99.90
12436;DHT22;6282;51.440;6.938;2022-10-30T08:07:56;16.60;1.00
12436;DHT22;6282;51.440;6.938;2022-10-30T08:10:23;16.70;1.00
12436;DHT22;6282;51.440;6.938;2022-10-30T08:12:50;16.60;1.00
12436;DHT22;6282;51.440;6.938;2022-10-30T08:15:17;16.70;99.90
12436;DHT22;6282;51.440;6.938;2022-10-30T08:17:46;16.70;1.00
12436;DHT22;6282;51.440;6.938;2022-10-30T08:20:14;16.80;99.90
12436;DHT22;6282;51.440;6.938;2022-10-30T08:22:48;16.90;99.90
12436;DHT22;6282;51.440;6.938;2022-10-30T08:25:16;17.00;46.70
12436;DHT22;6282;51.440;6.938;2022-10-30T08:27:51;17.20;1.00
12436;DHT22;6282;51.440;6.938;2022-10-30T08:30:19;17.30;1.00
12436;DHT22;6282;51.440;6.938;2022-10-30T08:32:46;17.40;99.90
12436;DHT22;6282;51.440;6.938;2022-10-30T08:35:13;17.50;99.90
12436;DHT22;6282;51.440;6.938;2022-10-30T08:37:40;17.70;99.90
12436;DHT22;6282;51.440;6.938;2022-10-30T08:40:10;17.60;1.00
12436;DHT22;6282;51.440;6.938;2022-10-30T08:42:38;17.70;17.80
12436;DHT22;6282;51.440;6.938;2022-10-30T08:45:06;17.70;99.90
12436;DHT22;6282;51.440;6.938;2022-10-30T08:47:33;17.90;59.80
12436;DHT22;6282;51.440;6.938;2022-10-30T08:50:00;17.90;1.00
12436;DHT22;6282;51.440;6.938;2022-10-30T08:52:26;17.70;1.00
12436;DHT22;6282;51.440;6.938;2022-10-30T08:54:53;18.00;1.00
12436;DHT22;6282;51.440;6.938;2022-10-30T08:57:21;18.00;1.00
12436;DHT22;6282;51.440;6.938;2022-10-30T08:59:48;18.10;1.00
12436;DHT22;6282;51.440;6.938;2022-10-30T09:02:15;18.20;99.90
12436;DHT22;6282;51.440;6.938;2022-10-30T09:04:42;18.20;99.90
12436;DHT22;6282;51.440;6.938;2022-10-30T09:07:08;18.20;99.90
12436;DHT22;6282;51.440;6.938;2022-10-30T09:09:35;18.30;99.90
12436;DHT22;6282;51.440;6.938;2022-10-30T09:12:02;18.40;99.90
12436;DHT22;6282;51.440;6.938;2022-10-30T09:14:32;18.40;99.90
12436;DHT22;6282;51.440;6.938;2022-10-30T09:16:59;18.60;99.90
12436;DHT22;6282;51.440;6.938;2022-10-30T09:19:26;18.70;99.90
12436;DHT22;6282;51.440;6.938;2022-10-30T09:21:54;18.80;14.60
12436;DHT22;6282;51.440;6.938;2022-10-30T09:24:20;18.80;1.00
12436;DHT22;6282;51.440;6.938;2022-10-30T09:26:47;18.90;1.00
12436;DHT22;6282;51.440;6.938;2022-10-30T09:29:15;18.90;1.00
12436;DHT22;6282;51.440;6.938;2022-10-30T09:31:43;19.00;1.00
12436;DHT22;6282;51.440;6.938;2022-10-30T09:34:10;19.00;1.00
12436;DHT22;6282;51.440;6.938;2022-10-30T09:36:37;19.00;1.00
12436;DHT22;6282;51.440;6.938;2022-10-30T09:39:03;19.00;1.00
12436;DHT22;6282;51.440;6.938;2022-10-30T09:41:44;19.00;1.00
12436;DHT22;6282;51.440;6.938;2022-10-30T09:44:23;19.20;1.00
12436;DHT22;6282;51.440;6.938;2022-10-30T09:47:05;19.40;1.00
12436;DHT22;6282;51.440;6.938;2022-10-30T09:49:56;19.30;99.90
12436;DHT22;6282;51.440;6.938;2022-10-30T09:52:28;19.50;99.90
12436;DHT22;6282;51.440;6.938;2022-10-30T09:55:08;19.50;99.90
12436;DHT22;6282;51.440;6.938;2022-10-30T09:57:42;19.60;99.90
12436;DHT22;6282;51.440;6.938;2022-10-30T10:00:16;19.60;99.90
12436;DHT22;6282;51.440;6.938;2022-10-30T10:02:55;19.60;99.90
12436;DHT22;6282;51.440;6.938;2022-10-30T10:05:26;19.70;99.90
12436;DHT22;6282;51.440;6.938;2022-10-30T10:07:56;19.60;1.00
12436;DHT22;6282;51.440;6.938;2022-10-30T10:10:33;19.70;31.80
12436;DHT22;6282;51.440;6.938;2022-10-30T10:13:04;19.80;1.00
12436;DHT22;6282;51.440;6.938;2022-10-30T10:15:39;19.90;1.00
12436;DHT22;6282;51.440;6.938;2022-10-30T10:18:24;19.80;1.00
12436;DHT22;6282;51.440;6.938;2022-10-30T10:20:52;19.90;1.00
12436;DHT22;6282;51.440;6.938;2022-10-30T10:23:28;20.00;1.00
12436;DHT22;6282;51.440;6.938;2022-10-30T10:25:58;20.10;1.00
12436;DHT22;6282;51.440;6.938;2022-10-30T10:28:45;20.10;1.00
12436;DHT22;6282;51.440;6.938;2022-10-30T10:31:28;20.10;1.00
12436;DHT22;6282;51.440;6.938;2022-10-30T10:34:19;20.20;1.00
12436;DHT22;6282;51.440;6.938;2022-10-30T10:36:53;20.20;1.00
12436;DHT22;6282;51.440;6.938;2022-10-30T10:39:39;20.40;1.00
12436;DHT22;6282;51.440;6.938;2022-10-30T10:42:18;20.60;1.00
12436;DHT22;6282;51.440;6.938;2022-10-30T10:44:57;20.50;99.90
12436;DHT22;6282;51.440;6.938;2022-10-30T10:47:39;20.60;99.90
12436;DHT22;6282;51.440;6.938;2022-10-30T10:50:20;20.80;99.90
12436;DHT22;6282;51.440;6.938;2022-10-30T10:52:54;20.80;99.90
12436;DHT22;6282;51.440;6.938;2022-10-30T10:55:24;20.80;99.90
12436;DHT22;6282;51.440;6.938;2022-10-30T10:57:58;20.80;99.90
12436;DHT22;6282;51.440;6.938;2022-10-30T11:00:25;20.90;99.90
12436;DHT22;6282;51.440;6.938;2022-10-30T11:02:59;20.90;99.90
12436;DHT22;6282;51.440;6.938;2022-10-30T11:05:33;21.00;99.90
12436;DHT22;6282;51.440;6.938;2022-10-30T11:08:09;21.00;99.90
12436;DHT22;6282;51.440;6.938;2022-10-30T11:10:37;20.90;99.90
12436;DHT22;6282;51.440;6.938;2022-10-30T11:13:05;20.90;57.70
12436;DHT22;6282;51.440;6.938;2022-10-30T11:15:45;20.90;18.00
12436;DHT22;6282;51.440;6.938;2022-10-30T11:18:13;21.00;99.90
12436;DHT22;6282;51.440;6.938;2022-10-30T11:20:47;21.10;31.80
12436;DHT22;6282;51.440;6.938;2022-10-30T11:23:37;21.00;24.70
12436;DHT22;6282;51.440;6.938;2022-10-30T11:26:30;21.10;48.20
12436;DHT22;6282;51.440;6.938;2022-10-30T11:29:02;21.10;30.50
12436;DHT22;6282;51.440;6.938;2022-10-30T11:31:31;21.20;99.90
12436;DHT22;6282;51.440;6.938;2022-10-30T11:34:17;21.30;99.90
12436;DHT22;6282;51.440;6.938;2022-10-30T11:36:48;21.20;93.50
12436;DHT22;6282;51.440;6.938;2022-10-30T11:39:18;21.20;26.40
12436;DHT22;6282;51.440;6.938;2022-10-30T11:42:00;21.30;29.00
12436;DHT22;6282;51.440;6.938;2022-10-30T11:44:30;21.30;90.90
12436;DHT22;6282;51.440;6.938;2022-10-30T11:46:58;21.30;63.20
12436;DHT22;6282;51.440;6.938;2022-10-30T11:49:30;21.30;1.00
12436;DHT22;6282;51.440;6.938;2022-10-30T11:51:59;21.40;1.00
12436;DHT22;6282;51.440;6.938;2022-10-30T11:54:26;21.40;1.00
12436;DHT22;6282;51.440;6.938;2022-10-30T11:56:54;21.50;1.00
12436;DHT22;6282;51.440;6.938;2022-10-30T11:59:23;21.40;1.00
12436;DHT22;6282;51.440;6.938;2022-10-30T12:01:58;21.30;1.00
12436;DHT22;6282;51.440;6.938;2022-10-30T12:04:26;21.30;1.00
12436;DHT22;6282;51.440;6.938;2022-10-30T12:07:08;21.20;1.00
12436;DHT22;6282;51.440;6.938;2022-10-30T12:09:43;21.30;1.00
12436;DHT22;6282;51.440;6.938;2022-10-30T12:12:11;21.30;1.00
12436;DHT22;6282;51.440;6.938;2022-10-30T12:14:42;21.30;1.00
12436;DHT22;6282;51.440;6.938;2022-10-30T12:17:13;21.20;1.00
12436;DHT22;6282;51.440;6.938;2022-10-30T12:19:47;21.10;1.00
12436;DHT22;6282;51.440;6.938;2022-10-30T12:22:28;21.20;1.00
12436;DHT22;6282;51.440;6.938;2022-10-30T12:24:57;21.20;1.00
12436;DHT22;6282;51.440;6.938;2022-10-30T12:27:26;21.10;1.00
12436;DHT22;6282;51.440;6.938;2022-10-30T12:30:05;21.10;1.00
12436;DHT22;6282;51.440;6.938;2022-10-30T12:32:47;21.20;1.00
12436;DHT22;6282;51.440;6.938;2022-10-30T12:35:41;21.30;1.00
12436;DHT22;6282;51.440;6.938;2022-10-30T12:38:15;21.30;1.00
12436;DHT22;6282;51.440;6.938;2022-10-30T12:40:54;21.20;1.00
12436;DHT22;6282;51.440;6.938;2022-10-30T12:43:25;21.20;1.00
12436;DHT22;6282;51.440;6.938;2022-10-30T12:45:55;21.20;1.00
12436;DHT22;6282;51.440;6.938;2022-10-30T12:48:29;21.20;1.00
12436;DHT22;6282;51.440;6.938;2022-10-30T12:51:10;21.00;1.00
12436;DHT22;6282;51.440;6.938;2022-10-30T12:53:45;21.10;1.00
12436;DHT22;6282;51.440;6.938;2022-10-30T12:56:17;21.10;1.00
12436;DHT22;6282;51.440;6.938;2022-10-30T12:58:48;21.10;1.00
12436;DHT22;6282;51.440;6.938;2022-10-30T13:01:21;21.10;1.00
12436;DHT22;6282;51.440;6.938;2022-10-30T13:03:56;21.20;1.00
12436;DHT22;6282;51.440;6.938;2022-10-30T13:06:27;21.20;1.00
12436;DHT22;6282;51.440;6.938;2022-10-30T13:09:05;21.20;1.00
12436;DHT22;6282;51.440;6.938;2022-10-30T13:11:38;21.20;13.90
12436;DHT22;6282;51.440;6.938;2022-10-30T13:14:12;21.20;1.00
12436;DHT22;6282;51.440;6.938;2022-10-30T13:16:41;21.20;1.00
12436;DHT22;6282;51.440;6.938;2022-10-30T13:19:11;21.20;90.40
12436;DHT22;6282;51.440;6.938;2022-10-30T13:21:42;21.30;1.00
12436;DHT22;6282;51.440;6.938;2022-10-30T13:24:20;21.30;1.00
12436;DHT22;6282;51.440;6.938;2022-10-30T13:26:53;21.20;1.00
12436;DHT22;6282;51.440;6.938;2022-10-30T13:29:26;21.10;1.00
12436;DHT22;6282;51.440;6.938;2022-10-30T13:32:10;21.10;59.40
12436;DHT22;6282;51.440;6.938;2022-10-30T13:34:46;21.00;1.00
12436;DHT22;6282;51.440;6.938;2022-10-30T13:37:20;21.00;1.00
12436;DHT22;6282;51.440;6.938;2022-10-30T13:40:04;21.00;1.00
12436;DHT22;6282;51.440;6.938;2022-10-30T13:42:46;21.00;1.00
12436;DHT22;6282;51.440;6.938;2022-10-30T13:45:32;21.00;1.00
12436;DHT22;6282;51.440;6.938;2022-10-30T13:48:09;20.90;1.00
12436;DHT22;6282;51.440;6.938;2022-10-30T13:50:49;20.90;8.50
12436;DHT22;6282;51.440;6.938;2022-10-30T13:53:26;20.90;44.10
12436;DHT22;6282;51.440;6.938;2022-10-30T13:55:55;20.80;44.90
12436;DHT22;6282;51.440;6.938;2022-10-30T13:58:26;20.80;76.80
12436;DHT22;6282;51.440;6.938;2022-10-30T14:01:00;20.80;94.60
12436;DHT22;6282;51.440;6.938;2022-10-30T14:03:41;20.80;99.90
12436;DHT22;6282;51.440;6.938;2022-10-30T14:06:19;20.80;99.90
12436;DHT22;6282;51.440;6.938;2022-10-30T14:08:51;20.70;99.90
12436;DHT22;6282;51.440;6.938;2022-10-30T14:11:21;20.80;99.90
12436;DHT22;6282;51.440;6.938;2022-10-30T14:13:52;20.70;99.90
12436;DHT22;6282;51.440;6.938;2022-10-30T14:16:36;20.70;99.90
12436;DHT22;6282;51.440;6.938;2022-10-30T14:19:05;20.70;99.90
12436;DHT22;6282;51.440;6.938;2022-10-30T14:21:39;20.70;99.90
12436;DHT22;6282;51.440;6.938;2022-10-30T14:24:12;20.70;99.90
12436;DHT22;6282;51.440;6.938;2022-10-30T14:26:46;20.70;99.90
12436;DHT22;6282;51.440;6.938;2022-10-30T14:29:45;20.60;99.90
12436;DHT22;6282;51.440;6.938;2022-10-30T14:32:49;20.60;99.90
12436;DHT22;6282;51.440;6.938;2022-10-30T14:35:34;20.60;99.90
12436;DHT22;6282;51.440;6.938;2022-10-30T14:38:21;20.60;99.90
12436;DHT22;6282;51.440;6.938;2022-10-30T14:43:55;20.50;1.00
12436;DHT22;6282;51.440;6.938;2022-10-30T14:46:28;20.30;99.90
12436;DHT22;6282;51.440;6.938;2022-10-30T14:49:10;20.40;1.00
12436;DHT22;6282;51.440;6.938;2022-10-30T14:51:48;20.30;1.00
12436;DHT22;6282;51.440;6.938;2022-10-30T14:54:21;20.40;1.00
12436;DHT22;6282;51.440;6.938;2022-10-30T14:56:51;20.40;1.00
12436;DHT22;6282;51.440;6.938;2022-10-30T14:59:22;20.20;1.00
12436;DHT22;6282;51.440;6.938;2022-10-30T15:01:58;20.30;1.00
12436;DHT22;6282;51.440;6.938;2022-10-30T15:04:37;20.30;1.00
12436;DHT22;6282;51.440;6.938;2022-10-30T15:07:19;20.20;1.00
12436;DHT22;6282;51.440;6.938;2022-10-30T15:10:02;20.10;1.00
12436;DHT22;6282;51.440;6.938;2022-10-30T15:12:41;19.90;99.90
12436;DHT22;6282;51.440;6.938;2022-10-30T15:15:14;19.50;1.00
12436;DHT22;6282;51.440;6.938;2022-10-30T15:17:45;19.70;99.90
12436;DHT22;6282;51.440;6.938;2022-10-30T15:20:17;19.70;96.70
12436;DHT22;6282;51.440;6.938;2022-10-30T15:22:48;19.60;1.00
12436;DHT22;6282;51.440;6.938;2022-10-30T15:25:18;19.30;99.90
12436;DHT22;6282;51.440;6.938;2022-10-30T15:27:46;19.20;99.90
12436;DHT22;6282;51.440;6.938;2022-10-30T15:30:19;19.30;1.00
12436;DHT22;6282;51.440;6.938;2022-10-30T15:32:46;19.40;1.00
12436;DHT22;6282;51.440;6.938;2022-10-30T15:35:16;19.40;1.00
12436;DHT22;6282;51.440;6.938;2022-10-30T15:38:00;19.20;99.90
12436;DHT22;6282;51.440;6.938;2022-10-30T15:40:28;19.10;99.90
12436;DHT22;6282;51.440;6.938;2022-10-30T15:42:56;19.20;99.90
12436;DHT22;6282;51.440;6.938;2022-10-30T15:45:30;19.20;1.00
12436;DHT22;6282;51.440;6.938;2022-10-30T15:48:00;19.20;1.00
12436;DHT22;6282;51.440;6.938;2022-10-30T15:50:29;19.10;1.00
12436;DHT22;6282;51.440;6.938;2022-10-30T15:52:57;19.20;1.00
12436;DHT22;6282;51.440;6.938;2022-10-30T15:55:28;19.30;99.90
12436;DHT22;6282;51.440;6.938;2022-10-30T15:57:57;19.20;99.90
12436;DHT22;6282;51.440;6.938;2022-10-30T16:00:28;19.20;99.90
12436;DHT22;6282;51.440;6.938;2022-10-30T16:03:03;19.00;99.90
12436;DHT22;6282;51.440;6.938;2022-10-30T16:05:32;19.10;99.90
12436;DHT22;6282;51.440;6.938;2022-10-30T16:08:00;19.00;1.00
12436;DHT22;6282;51.440;6.938;2022-10-30T16:10:32;18.90;1.00
12436;DHT22;6282;51.440;6.938;2022-10-30T16:13:00;18.90;1.00
12436;DHT22;6282;51.440;6.938;2022-10-30T16:15:30;18.80;1.00
12436;DHT22;6282;51.440;6.938;2022-10-30T16:18:04;18.80;1.00
12436;DHT22;6282;51.440;6.938;2022-10-30T16:20:32;18.80;1.00